首页
METAR-TAF:

METAR-TAF

机场 :

Charlevoix Municipal Airport

Charlevoix, 密歇根州, 美国

纬度: 45-18-17N, 经度: 085-16-29W, 海拔: 204米

当前天气观测

该预报发布于24分钟前的05:15 UTC
风速5节,风向东转东北
温度 2°C
湿度 93%
气压 1000 hPa
能見度: 8.0公里
阴天层高于500英尺
小雨

METAR: KCVX 160515Z AUTO 06005KT 5SM -RA OVC005 02/01 A2953 RMK AO2 T00160012

时间: 00:39 (05:39 UTC)


TAF: 丢失

超过4000个机场的气象观测和天气预报(METAR&TAF报告)。

可查询的气象台以黄色和红色小点在地图上表示。

将鼠标移到小点上方,可查看气象台名称。

然后点击查看天气观测和预报。

如需切换地图:点击带黑十字的绿色按钮放大地图;点击带横线的绿色按钮缩小地图;或者点击绿色箭头查看邻近地区的地图。


METAR-TAF: